Aviation Digital Data Service (ADDS)

Output produced by METARs form (1344 UTC 26 May 2018)
found at http://www.aviationweather.gov/adds/metars/
 
ZBHH 261300Z 17003MPS CAVOK 16/03 Q1017 NOSIG
TAF ZBHH 260910Z 2612/2712 31004G09MPS 9999 FEW040 TX24/2708Z TN08/2622Z
       
ZGGG 261330Z 14003MPS CAVOK 31/25 Q1007 NOSIG
TAF ZGGG 260905Z 2612/2712 18005MPS 8000 SCT033 TX37/2707Z TN29/2622Z 
     TEMPO 2704/2710 2000 TSRA SCT011 SCT030CB BKN033
       
ZGSZ 261300Z 17006MPS CAVOK 30/27 Q1008 NOSIG
TAF ZGSZ 260909Z 2612/2712 18005MPS 8000 FEW020 TX33/2706Z TN28/2621Z 
     TEMPO 2705/2709 FEW020CB SCT020
       
ZBTJ 261330Z 34006MPS 6000 NSC 26/07 Q1009 NOSIG
TAF ZBTJ 260829Z 2612/2712 24004MPS 3000 HZ NSC TX30/2707Z TN18/2621Z 
     BECMG 2614/2615 33006MPS 
     TEMPO 2614/2618 -TSRA SCT030CB SCT030
       
ZBAA 261330Z 03002MPS 360V060 CAVOK 22/08 Q1010 NOSIG
TAF ZBAA 260920Z 2612/2712 31004MPS 6000 NSC TX32/2707Z TN16/2621Z
       
ZSFZ 261300Z 21003MPS CAVOK 27/25 Q1006 NOSIG
TAF ZSFZ 260903Z 2612/2712 19004MPS 5000 BR SCT030 TX32/2706Z TN25/2621Z
       
ZYCC 261300Z VRB01MPS CAVOK 18/04 Q1008 NOSIG
TAF ZYCC 260905Z 2612/2712 07004MPS 6000 SCT023 TX21/2706Z TN12/2622Z 
     BECMG 2619/2620 2500 -RA BR BKN009 BKN023
       
ZWWW 261330Z 03002MPS CAVOK 24/02 Q1016 NOSIG
TAF ZWWW 260907Z 2612/2712 03004MPS CAVOK TX28/2709Z TN16/2623Z 
     BECMG 2613/2614 16004G09MPS 
     BECMG 2703/2704 36004MPS
       
ZSAM 261300Z 21002MPS CAVOK 31/25 Q1006 NOSIG
TAF ZSAM 260902Z 2612/2712 19004MPS 6000 FEW030 TX35/2706Z TN26/2621Z 
     PROB40 
     TEMPO 2706/2712 FEW026CB BKN030
       
ZSSS 261330Z 04004MPS 7000 BKN008 20/19 Q1010 NOSIG
TAF ZSSS 260916Z 2612/2712 04004MPS 5000 BR BKN011 TX26/2706Z TN20/2621Z 
     TEMPO 2620/2702 2500 SHRA BR BKN006 FEW030CB
       
ZGHA 261300Z 34005MPS 8000 BKN026 25/21 Q1009 NOSIG
TAF ZGHA 260835Z 2612/2712 35005MPS 4000 -RA BR BKN011 OVC050 TX28/2707Z TN21/2622Z 
     BECMG 2613/2614 SHRA BKN007 FEW040CB BKN040 
     BECMG 2615/2616 -RA BKN011 OVC050
       
ZUCK 261300Z 31004MPS 270V330 5000 -RA BR FEW004 SCT012 OVC030 17/16 Q1016 NOSIG
TAF ZUCK 260902Z 2612/2712 30004MPS 5000 BR SCT020 OVC040 TX23/2707Z TN19/2621Z 
     TEMPO 2616/2622 3500 -SHRA BR FEW005 SCT015 OVC030
       
ZWSH 261300Z 20002MPS 170V230 7000 NSC 23/M08 Q1020 NOSIG
TAF ZWSH 260913Z 2612/2712 12004MPS 8000 NSC TX25/2709Z TN14/2700Z 
     BECMG 2614/2615 32004MPS 
     BECMG 2704/2705 09004MPS
       
ZGKL 261300Z 34003MPS CAVOK 26/25 Q1008 TEMPO FM1420 -TSRA
TAF ZGKL 260912Z 2612/2712 05004MPS 9999 SCT033 BKN060 TX30/2708Z TN22/2622Z 
     TEMPO 2615/2621 2500 TSRA BR FEW010 SCT020 FEW033CB BKN033
       
ZSNB 261300Z 03002MPS 350V070 4500 BR SCT007 BKN016 22/21 Q1009 NOSIG
TAF ZSNB 260824Z 2612/2712 36004MPS 4000 BR BKN020 TX26/2706Z TN20/2621Z
       
ZSQD 261300Z 18003MPS CAVOK 18/14 Q1011 NOSIG
TAF ZSQD 260911Z 2612/2712 18004MPS CAVOK TX27/2706Z TN15/2621Z
       
ZSNJ 261300Z 06003MPS 4500 BR SCT013 21/20 Q1010 NOSIG
TAF ZSNJ 260911Z 2612/2712 06003MPS 3000 HZ BKN015 TX28/2706Z TN19/2621Z
       
ZSOF 261300Z VRB01MPS 4000 BR BKN020 OVC040 22/20 Q1011 NOSIG
TAF ZSOF 260904Z 2612/2712 35003MPS 3000 BR BKN020 TX29/2707Z TN20/2621Z 
     BECMG 2618/2619 2000 BR 
     BECMG 2620/2621 1000 BR 
     BECMG 2623/2624 3000 BR
       
ZJHK 261300Z 12002MPS 9999 FEW033 28/27 Q1007 NOSIG
TAF ZJHK 260904Z 2612/2712 18003MPS 9999 SCT020 TX34/2706Z TN24/2622Z 
     BECMG 2704/2705 SCT020 FEW026CB 
     TEMPO 2705/2711 -TSRA
       
ZJSY 261300Z 23001MPS 9999 SCT015 30/27 Q1008 NOSIG
TAF COR ZJSY 260902Z 2612/2712 18004MPS 9999 SCT020 TX33/2706Z TN27/2621Z 
     TEMPO 2620/2702 SCT018 FEW025CB
       
ZSPD 261330Z 03004MPS 360V060 9999 BKN007 20/19 Q1010 NOSIG
TAF ZSPD 260925Z 2612/2712 05004MPS 5000 BR BKN005 TX25/2706Z TN19/2621Z 
     BECMG 2704/2706 BKN010
       
ZUUU 261300Z 00000MPS 9999 SCT050 21/17 Q1019 NOSIG
TAF ZUUU 260809Z 2612/2712 20003MPS 5000 BR SCT050 TX29/2707Z TN19/2622Z
       
ZYHB 261300Z 03006MPS CAVOK 16/08 Q1009 NOSIG
TAF ZYHB 260912Z 2612/2712 05004MPS 6000 BKN033 TX16/2706Z TN09/2621Z 
     BECMG 2622/2623 13005MPS -RA 
     TEMPO 2700/2706 -TSRA FEW020CB BKN023
       
ZYTX 261330Z 22004MPS 9999 BKN040 21/09 Q1008 NOSIG
TAF ZYTX 260706Z 2612/2712 21004MPS 6000 BKN040 TX24/2706Z TN15/2621Z 
     BECMG 2619/2620 -SHRA FEW030CB BKN040 
     BECMG 2701/2702 NSW BKN040 
     TEMPO 2620/2702 -TSRA SCT030CB BKN040
       
ZHHH 261300Z 05003MPS CAVOK 24/20 Q1010 NOSIG
TAF ZHHH 260809Z 2612/2712 05003MPS 3000 BR NSC TX29/2707Z TN20/2622Z
       
ZPPP 261300Z 08003MPS 9999 SCT040 20/15 Q1019 NOSIG
TAF ZPPP 260706Z 2612/2712 04004MPS 9999 SCT020 BKN033 TX20/2708Z TN13/2623Z 
     TEMPO 2612/2614 TSRA FEW020CB SCT020 BKN033
       
ZBYN 261330Z 29003MPS CAVOK 19/04 Q1017 NOSIG
TAF ZBYN 260908Z 2612/2712 31007G13MPS 5000 SA NSC TX28/2707Z TN10/2621Z
       
ZGNN 261300Z 12002MPS 080V180 CAVOK 29/25 Q1006 NOSIG
TAF ZGNN 260907Z 2612/2712 14003MPS 7000 SCT030 TX31/2707Z TN25/2622Z 
     BECMG 2700/2702 03005MPS 
     TEMPO 2700/2706 TSRA SCT010 FEW023CB BKN030
       
ZLXY 261300Z 24002MPS 8000 NSC 15/11 Q1021 NOSIG
TAF ZLXY 260909Z 2612/2712 24003MPS 3000 BR NSC TX27/2707Z TN12/2622Z
       
ZSHC 261330Z 06005MPS 3500 BR SCT025 BKN040 24/22 Q1010 NOSIG
TAF ZSHC 260901Z 2612/2712 02003MPS 3000 BR SCT020 BKN040 TX28/2706Z TN21/2621Z
       
ZHCC 261300Z 25004MPS 220V280 6000 NSC 24/11 Q1012 NOSIG
TAF ZHCC 260906Z 2612/2712 30007MPS 3000 HZ NSC TX31/2707Z TN17/2622Z
       
ZBSJ 261300Z 33005MPS CAVOK 25/09 Q1010 NOSIG
TAF ZBSJ 260703Z 2612/2712 27006G12MPS 3500 BR NSC TX28/2707Z TN16/2621Z 
     BECMG 2617/2618 36003MPS
       
ZLLL 261300Z 12002MPS 080V150 CAVOK 15/02 Q1027 NOSIG
TAF ZLLL 260902Z 2612/2712 35003MPS CAVOK TX22/2709Z TN05/2622Z 
     TEMPO 2706/2712 SCT023 FEW033CB
       
ZYTL 261330Z 15003MPS CAVOK 19/07 Q1009 NOSIG
TAF ZYTL 260917Z 2612/2712 20004MPS 8000 SCT033 TX26/2706Z TN18/2621Z 
     TEMPO 2620/2702 3000 -TSRA BR BKN026 FEW030CB